Aérodrome :
LOGIN :

S'inscrire | Disclaimer

   EN    FR    IT 

 










Légende :    VFR   VFR Marginal   IFR   IFR Intensif   IFR Très Intensif
Visi : 
Plafond : 
>= 8 km
>= 3000ft
5 à 8 km
1000 à 3000 ft
1500m à 5 km
500 à 1000 ft
800 à 1500m
200 à 500 ft
< 800m
< 200 ft
Symboles :   Orages  Brouillard  Fortes neiges  Fortes précipitations  Vent > 20 kt
SIGMETs :   Divers  Orages  Givrage  Turbulence  Onde Orograph.  Cendres Volcan.







- Altitude de l'aérodrome : 675 ft
- Code IATA : RZE


EPRZ - Rzeszow-Jasionka

DERNIER METAR :
  • 241300Z 08010KT 040V100 CAVOK 25/12 Q1024

METARs EXPIRÉS :
  • 241230Z 07012KT 040V100 CAVOK 26/14 Q1024
  • 241200Z 09012KT 060V130 CAVOK 25/13 Q1025
  • 241130Z 09010KT 060V120 CAVOK 25/12 Q1025
  • 241100Z 08011G21KT CAVOK 25/12 Q1025
  • 241030Z 08011KT 050V110 CAVOK 24/13 Q1025

TAF TAF EPRZ
Valide du 24 à 12h jusqu'au 25 à 12h UTC


241130Z 2412/2512 08010KT CAVOK
TEMPO 2412/2416 10015G25KT
PROB40
TEMPO 2509/2512 10015G25KT
Pas de NOTAMs connus pour ce terrain.



MET'MAP, la Météo Aéronautique d'un coup d'oeil ! - Copyright ORBIFLY Décembre 2007 - Disclaimer

ORBIFLY MET'MAP TEAM :

Programmation & Développement : Alexandra Zaïnal
Conception & Développement : Baudouin d'Aumeries
Co-Programmation & Développement : Marc-Olivier Méhu
Soutien technique & logistique : Manuel Goepfert

Contact : metmap@orbifly.com




SOURCES & CREDITS :

   NOAA